Time;durP1;ratioP1;P1;durP2;ratioP2;P2;SDS_P1;SDS_P2;PMS_P1;PMS_P2;Temp;Humidity;BMP_temperature;BMP_pressure;BME280_temperature;BME280_humidity;BME280_pressure;Samples;Min_cycle;Max_cycle;Signal;HPM_P1;HPM_P2
2022/12/22 15:10:50;;;;;;;33.63;18.85;;;8.20;99.90;;;;;;6228586;22;1221895;-79
2022/12/22 15:13:22;;;;;;;32.38;18.65;;;8.20;99.90;;;;;;6246887;22;20003;-78
2022/12/22 15:15:49;;;;;;;32.13;18.15;;;8.10;99.90;;;;;;6246942;22;20004;-78
2022/12/22 15:18:16;;;;;;;35.20;19.70;;;8.10;99.90;;;;;;6273855;22;20000;-79
2022/12/22 15:20:41;;;;;;;32.10;18.70;;;8.00;99.90;;;;;;6273427;22;20078;-79
2022/12/22 15:23:17;;;;;;;33.10;18.48;;;8.00;99.90;;;;;;6246049;22;20032;-76
2022/12/22 15:25:43;;;;;;;32.95;18.90;;;7.90;99.90;;;;;;6273962;22;20006;-77
2022/12/22 15:28:09;;;;;;;33.95;18.02;;;7.90;99.90;;;;;;6246735;22;20246;-75
2022/12/22 15:30:35;;;;;;;36.10;18.50;;;7.80;99.90;;;;;;6273192;22;20004;-75
2022/12/22 15:33:02;;;;;;;40.75;19.73;;;7.80;99.90;;;;;;6274100;22;20010;-75
2022/12/22 15:35:33;;;;;;;31.23;18.10;;;7.70;99.90;;;;;;6246625;22;20007;-75
2022/12/22 15:37:59;;;;;;;33.30;18.95;;;7.70;99.90;;;;;;6246684;22;20011;-75
2022/12/22 15:40:27;;;;;;;39.83;20.27;;;7.70;99.90;;;;;;6273514;22;20000;-75
2022/12/22 15:42:56;;;;;;;36.08;19.65;;;7.60;99.90;;;;;;6246285;22;20082;-75
2022/12/22 15:45:22;;;;;;;37.72;19.58;;;7.50;99.90;;;;;;6246415;22;20007;-75
2022/12/22 15:47:51;;;;;;;44.80;20.05;;;7.50;99.90;;;;;;6274100;22;19991;-75
2022/12/22 15:50:27;;;;;;;36.00;18.85;;;7.50;99.90;;;;;;6246143;22;20007;-75
2022/12/22 15:52:55;;;;;;;40.63;19.83;;;7.50;99.90;;;;;;6246551;22;20078;-75
2022/12/22 15:55:24;;;;;;;37.38;19.58;;;7.40;99.90;;;;;;6246449;22;20012;-76
2022/12/22 15:57:56;;;;;;;38.13;19.97;;;7.40;99.90;;;;;;6238817;22;20380;-76
2022/12/22 16:00:22;;;;;;;39.22;19.80;;;7.40;99.90;;;;;;6270064;22;20430;-76
2022/12/22 16:02:48;;;;;;;40.42;20.88;;;7.30;99.90;;;;;;6271855;22;20003;-75
2022/12/22 16:05:14;;;;;;;41.95;20.38;;;7.30;99.90;;;;;;6268792;22;20000;-75
2022/12/22 16:07:42;;;;;;;39.55;18.92;;;7.20;99.90;;;;;;6270844;22;20023;-75
2022/12/22 16:10:25;;;;;;;39.53;20.27;;;7.20;99.90;;;;;;6270927;22;20007;-75
2022/12/22 16:12:58;;;;;;;41.80;20.08;;;7.20;99.90;;;;;;6244448;22;20011;-75
2022/12/22 16:15:30;;;;;;;42.40;21.70;;;7.10;99.90;;;;;;6244418;22;20370;-75
2022/12/22 16:17:59;;;;;;;46.47;22.20;;;7.10;99.90;;;;;;6270557;22;20446;-75
2022/12/22 16:20:28;;;;;;;46.33;21.93;;;7.10;99.90;;;;;;6243973;22;20000;-75
2022/12/22 16:22:55;;;;;;;45.17;21.95;;;7.10;99.90;;;;;;6244418;22;20046;-75
2022/12/22 16:25:32;;;;;;;45.15;23.30;;;7.10;99.90;;;;;;6275165;22;20319;-75
2022/12/22 16:27:59;;;;;;;46.45;23.02;;;7.10;99.90;;;;;;6247339;22;20007;-77
2022/12/22 16:30:28;;;;;;;48.03;21.58;;;7.10;99.90;;;;;;6271506;22;20031;-77
2022/12/22 16:32:54;;;;;;;49.55;23.20;;;7.20;99.90;;;;;;6272817;22;20006;-77
2022/12/22 16:35:22;;;;;;;47.38;23.10;;;7.10;99.90;;;;;;6273535;22;20151;-77
2022/12/22 16:37:48;;;;;;;41.45;22.08;;;7.10;99.90;;;;;;6246242;22;20083;-75
2022/12/22 16:40:17;;;;;;;44.45;23.67;;;7.10;99.90;;;;;;6245621;22;20010;-75
2022/12/22 16:42:58;;;;;;;42.42;21.23;;;7.10;99.90;;;;;;6273299;22;20000;-75
2022/12/22 16:45:27;;;;;;;45.50;20.05;;;7.10;99.90;;;;;;6275346;22;19996;-75
2022/12/22 16:47:56;;;;;;;43.15;20.55;;;7.10;99.90;;;;;;6248073;22;20053;-75
2022/12/22 16:50:31;;;;;;;47.08;22.15;;;7.10;99.90;;;;;;6247465;22;20438;-75
2022/12/22 16:52:59;;;;;;;36.53;18.25;;;7.10;99.90;;;;;;6273886;22;20000;-77
2022/12/22 16:55:25;;;;;;;37.00;19.38;;;7.00;99.90;;;;;;6273893;22;20381;-77
2022/12/22 16:57:51;;;;;;;38.10;19.88;;;7.00;99.90;;;;;;6278252;22;20361;-78
2022/12/22 17:00:20;;;;;;;35.55;18.17;;;7.00;99.90;;;;;;6248490;22;20003;-77
2022/12/22 17:02:50;;;;;;;32.47;18.10;;;7.00;99.90;;;;;;6247999;22;20031;-77
2022/12/22 17:05:34;;;;;;;35.75;17.00;;;7.00;99.90;;;;;;6273429;22;20449;-77
2022/12/22 17:08:01;;;;;;;33.15;17.05;;;7.00;99.90;;;;;;6246760;22;20003;-77
2022/12/22 17:10:27;;;;;;;31.08;16.45;;;7.00;99.90;;;;;;6271832;22;20012;-76
2022/12/22 17:12:55;;;;;;;31.05;15.70;;;7.00;99.90;;;;;;6273271;22;20014;-77
2022/12/22 17:15:22;;;;;;;26.75;15.25;;;7.00;99.90;;;;;;6272571;22;20034;-77
2022/12/22 17:17:49;;;;;;;29.83;15.48;;;7.00;99.90;;;;;;6245788;22;20054;-76
2022/12/22 17:20:17;;;;;;;28.92;15.60;;;7.00;99.90;;;;;;6245316;22;20526;-77
2022/12/22 17:22:45;;;;;;;27.48;15.27;;;7.00;99.90;;;;;;6273157;22;20003;-77
2022/12/22 17:25:20;;;;;;;29.35;15.68;;;6.90;99.90;;;;;;6276571;22;20398;-77
2022/12/22 17:27:46;;;;;;;26.13;14.85;;;6.90;99.90;;;;;;6264279;22;20004;-79
2022/12/22 17:30:22;;;;;;;27.73;15.38;;;6.90;99.90;;;;;;6286471;22;20050;-79
2022/12/22 17:32:48;;;;;;;28.30;14.65;;;6.90;99.90;;;;;;6257933;22;20003;-79
2022/12/22 17:35:15;;;;;;;25.77;15.52;;;7.00;99.90;;;;;;6285141;22;20006;-79
2022/12/22 17:37:43;;;;;;;25.38;14.55;;;7.00;99.90;;;;;;6284293;22;19995;-78
2022/12/22 17:40:25;;;;;;;28.08;15.30;;;7.00;99.90;;;;;;6284565;22;20007;-79
2022/12/22 17:42:51;;;;;;;25.25;14.27;;;7.00;99.90;;;;;;6258210;22;20460;-78
2022/12/22 17:45:17;;;;;;;30.00;13.88;;;7.00;99.90;;;;;;6254441;22;20030;-79
2022/12/22 17:47:46;;;;;;;26.77;14.68;;;7.00;99.90;;;;;;6286517;22;20027;-78
2022/12/22 17:50:20;;;;;;;27.20;14.80;;;7.00;99.90;;;;;;6228529;23;20003;-79
2022/12/22 17:52:46;;;;;;;27.55;14.75;;;6.90;99.90;;;;;;6228743;23;20000;-78
2022/12/22 17:55:24;;;;;;;30.23;15.95;;;6.90;99.90;;;;;;6229788;23;20008;-79
2022/12/22 17:57:50;;;;;;;26.65;16.00;;;6.90;99.90;;;;;;6229144;23;20004;-78
2022/12/22 18:00:17;;;;;;;27.30;16.48;;;6.90;99.90;;;;;;6254362;23;20004;-80
2022/12/22 18:02:43;;;;;;;26.27;13.48;;;6.80;99.90;;;;;;6224382;23;20000;-79
2022/12/22 18:05:20;;;;;;;24.58;13.88;;;6.90;99.90;;;;;;6226169;23;20005;-79
2022/12/22 18:07:48;;;;;;;28.35;13.82;;;6.90;99.90;;;;;;6222718;23;20442;-78
2022/12/22 18:10:29;;;;;;;25.67;14.10;;;6.90;99.90;;;;;;6218227;23;20016;-78
2022/12/22 18:12:57;;;;;;;23.65;13.93;;;7.00;99.90;;;;;;6247295;23;20424;-78
2022/12/22 18:15:25;;;;;;;23.55;13.10;;;6.90;99.90;;;;;;6247690;23;20007;-78
2022/12/22 18:17:51;;;;;;;26.65;13.20;;;6.90;99.90;;;;;;6218199;23;20004;-79
2022/12/22 18:20:19;;;;;;;25.67;13.25;;;6.90;99.90;;;;;;6244251;23;20007;-79
2022/12/22 18:22:45;;;;;;;22.55;13.68;;;6.90;99.90;;;;;;6245625;23;20395;-78
2022/12/22 18:25:23;;;;;;;29.02;14.38;;;7.00;99.90;;;;;;6220910;23;20000;-80
2022/12/22 18:27:49;;;;;;;25.67;14.63;;;6.90;99.90;;;;;;6218395;23;20038;-79
2022/12/22 18:30:19;;;;;;;28.48;13.82;;;7.00;99.90;;;;;;6244650;23;20409;-77
2022/12/22 18:32:46;;;;;;;22.02;12.48;;;7.00;99.90;;;;;;6216833;23;20004;-78
2022/12/22 18:35:12;;;;;;;25.88;13.90;;;7.00;99.90;;;;;;6247736;23;20000;-78
2022/12/22 18:37:38;;;;;;;25.55;12.57;;;7.00;99.90;;;;;;6218993;23;20446;-77
2022/12/22 18:40:04;;;;;;;22.45;12.43;;;7.00;99.90;;;;;;6242068;23;20000;-76
2022/12/22 18:42:32;;;;;;;24.40;12.90;;;7.00;99.90;;;;;;6219299;23;20005;-77
2022/12/22 18:44:57;;;;;;;22.27;12.25;;;7.00;99.90;;;;;;6223615;23;20512;-80
2022/12/22 18:47:23;;;;;;;24.30;13.15;;;7.00;99.90;;;;;;6250408;23;20075;-79
2022/12/22 18:49:49;;;;;;;28.95;14.77;;;7.00;99.90;;;;;;6247488;23;20028;-79
2022/12/22 18:52:20;;;;;;;26.15;14.02;;;6.90;99.90;;;;;;6222518;23;20012;-78
2022/12/22 18:54:46;;;;;;;23.77;13.25;;;6.90;99.90;;;;;;6221819;23;20008;-79
2022/12/22 18:57:15;;;;;;;24.88;12.63;;;6.80;99.90;;;;;;6220901;23;20500;-78
2022/12/22 18:59:41;;;;;;;22.38;12.02;;;6.90;99.90;;;;;;6251191;23;20526;-79
2022/12/22 19:02:22;;;;;;;24.48;12.40;;;6.90;99.90;;;;;;6225636;23;20001;-82
2022/12/22 19:04:49;;;;;;;24.40;12.27;;;6.90;99.90;;;;;;6250764;23;20004;-80
2022/12/22 19:07:17;;;;;;;24.88;13.82;;;6.90;99.90;;;;;;6223374;23;20069;-78
2022/12/22 19:09:43;;;;;;;23.17;13.90;;;6.90;99.90;;;;;;6247173;23;20008;-78
2022/12/22 19:12:17;;;;;;;26.33;13.40;;;6.90;99.90;;;;;;6253555;23;20008;-80
2022/12/22 19:14:46;;;;;;;30.35;13.32;;;6.90;99.90;;;;;;6229096;23;20004;-80
2022/12/22 19:17:14;;;;;;;26.38;12.93;;;6.90;99.90;;;;;;6230636;23;20004;-81
2022/12/22 19:19:39;;;;;;;30.30;13.20;;;6.90;99.90;;;;;;6231108;23;20038;-80
2022/12/22 19:22:05;;;;;;;22.88;12.88;;;6.90;99.90;;;;;;6230772;23;20000;-80
2022/12/22 19:24:31;;;;;;;19.65;12.27;;;6.90;99.90;;;;;;6256588;23;19996;-79
2022/12/22 19:26:57;;;;;;;25.20;12.23;;;6.90;99.90;;;;;;6226645;23;20046;-81
2022/12/22 19:29:23;;;;;;;27.75;12.63;;;6.90;99.90;;;;;;6231643;23;20061;-80
2022/12/22 19:31:48;;;;;;;25.27;12.93;;;7.00;99.90;;;;;;6228409;23;20111;-80
2022/12/22 19:34:18;;;;;;;21.77;10.93;;;7.00;99.90;;;;;;6225716;23;20301;-79
2022/12/22 19:36:46;;;;;;;27.20;12.70;;;7.00;99.90;;;;;;6230031;23;20447;-80
2022/12/22 19:39:12;;;;;;;20.10;12.32;;;7.00;99.90;;;;;;6229774;23;20007;-80
2022/12/22 19:41:50;;;;;;;23.75;12.93;;;6.90;99.90;;;;;;6258476;23;20004;-80
2022/12/22 19:44:26;;;;;;;22.75;12.73;;;6.90;99.90;;;;;;6234210;23;20023;-80
2022/12/22 19:46:53;;;;;;;26.45;13.50;;;6.90;99.90;;;;;;6224231;23;20022;-81
2022/12/22 19:49:23;;;;;;;27.63;14.25;;;6.90;99.90;;;;;;6255374;23;20000;-80
2022/12/22 19:51:49;;;;;;;23.48;13.20;;;6.90;99.90;;;;;;6255580;23;20004;-80
2022/12/22 19:54:18;;;;;;;22.10;12.65;;;7.00;99.90;;;;;;6251712;23;20079;-82
2022/12/22 19:56:47;;;;;;;20.92;13.38;;;7.00;99.90;;;;;;6257097;23;20003;-82
2022/12/22 19:59:39;;;;;;;26.13;14.43;;;7.00;99.90;;;;;;6235843;23;20000;-82
2022/12/22 20:02:26;;;;;;;25.25;13.50;;;7.00;99.90;;;;;;6238671;23;20004;-80
2022/12/22 20:04:53;;;;;;;25.25;14.45;;;7.00;99.90;;;;;;6240970;23;20063;-79
2022/12/22 20:07:21;;;;;;;25.75;14.73;;;7.00;99.90;;;;;;6239906;23;20461;-79
2022/12/22 20:09:47;;;;;;;29.13;16.20;;;7.00;99.90;;;;;;6234987;23;20012;-79
2022/12/22 20:12:32;;;;;;;31.52;17.00;;;6.90;99.90;;;;;;6235677;23;20008;-79
2022/12/22 20:14:59;;;;;;;29.63;16.15;;;6.90;99.90;;;;;;6235048;23;20000;-80
2022/12/22 20:17:24;;;;;;;26.98;16.27;;;6.90;99.90;;;;;;6264578;23;20000;-80
2022/12/22 20:19:50;;;;;;;24.65;14.68;;;6.90;99.90;;;;;;6222611;23;20022;-79
2022/12/22 20:22:18;;;;;;;29.48;15.40;;;6.90;99.90;;;;;;6228903;23;20004;-81
2022/12/22 20:24:44;;;;;;;25.33;14.80;;;6.90;99.90;;;;;;6257844;23;19996;-80
2022/12/22 20:27:28;;;;;;;29.80;17.75;;;6.90;99.90;;;;;;6230987;23;20000;-80
2022/12/22 20:29:55;;;;;;;27.27;16.25;;;6.90;99.90;;;;;;6226239;23;20008;-80
2022/12/22 20:32:21;;;;;;;26.52;15.00;;;6.90;99.90;;;;;;6228750;23;20004;-80
2022/12/22 20:34:46;;;;;;;25.88;15.38;;;6.90;99.90;;;;;;6230174;23;20031;-81
2022/12/22 20:37:14;;;;;;;25.85;15.43;;;6.90;99.90;;;;;;6261378;23;20067;-80
2022/12/22 20:39:39;;;;;;;31.08;16.30;;;7.00;99.90;;;;;;6231371;23;20030;-80
2022/12/22 20:42:05;;;;;;;26.65;16.02;;;7.00;99.90;;;;;;6224308;23;20031;-79
2022/12/22 20:44:31;;;;;;;29.20;17.17;;;7.00;99.90;;;;;;6231471;23;20000;-78
2022/12/22 20:47:15;;;;;;;24.20;15.18;;;7.00;99.90;;;;;;6228817;23;20461;-79
2022/12/22 20:49:43;;;;;;;27.20;15.73;;;7.00;99.90;;;;;;6227316;23;20445;-80
2022/12/22 20:52:16;;;;;;;27.80;16.05;;;7.00;99.90;;;;;;6231602;23;20023;-79
2022/12/22 20:54:45;;;;;;;27.15;15.93;;;7.10;99.90;;;;;;6229670;23;20058;-80
2022/12/22 20:57:15;;;;;;;28.60;16.35;;;7.00;99.90;;;;;;6227697;23;20000;-82
2022/12/22 20:59:42;;;;;;;24.08;15.80;;;7.00;99.90;;;;;;6227206;23;20008;-80
2022/12/22 21:02:23;;;;;;;25.38;15.50;;;7.00;99.90;;;;;;6225741;23;20008;-82
2022/12/22 21:04:49;;;;;;;25.65;15.35;;;7.00;99.90;;;;;;6254214;23;20023;-81
2022/12/22 21:07:15;;;;;;;26.17;14.95;;;7.00;99.90;;;;;;6232220;23;19997;-82
2022/12/22 21:09:41;;;;;;;24.73;15.05;;;7.10;99.90;;;;;;6227765;23;20008;-81
2022/12/22 21:12:07;;;;;;;27.05;15.80;;;7.10;99.90;;;;;;6226362;23;20331;-81
2022/12/22 21:14:32;;;;;;;32.25;16.58;;;7.10;99.90;;;;;;6220970;23;20031;-78
2022/12/22 21:16:58;;;;;;;36.08;17.55;;;7.10;99.90;;;;;;6219481;23;20008;-78
2022/12/22 21:19:24;;;;;;;34.22;18.48;;;7.10;99.90;;;;;;6217124;23;20007;-78
2022/12/22 21:21:50;;;;;;;33.97;16.92;;;7.00;99.90;;;;;;6222299;23;20004;-78
2022/12/22 21:24:17;;;;;;;30.30;17.10;;;7.00;99.90;;;;;;6225655;23;20330;-78
2022/12/22 21:26:47;;;;;;;33.90;18.95;;;6.90;99.90;;;;;;6252927;23;20000;-80
2022/12/22 21:29:17;;;;;;;35.22;19.02;;;6.90;99.90;;;;;;6227890;23;20389;-77
2022/12/22 21:31:43;;;;;;;30.25;18.20;;;6.90;99.90;;;;;;6257509;23;20007;-79
2022/12/22 21:34:10;;;;;;;33.13;18.65;;;6.90;99.90;;;;;;6228861;23;20358;-79
2022/12/22 21:36:35;;;;;;;37.38;19.17;;;6.90;99.90;;;;;;6227203;23;20060;-78
2022/12/22 21:39:25;;;;;;;35.63;20.08;;;6.90;99.90;;;;;;6224932;23;20004;-77
2022/12/22 21:42:00;;;;;;;34.28;19.08;;;6.90;99.90;;;;;;6246758;23;19996;-78
2022/12/22 21:44:27;;;;;;;35.08;18.33;;;6.80;99.90;;;;;;6245844;23;20000;-78
2022/12/22 21:46:53;;;;;;;33.63;18.88;;;6.80;99.90;;;;;;6218926;23;20085;-78
2022/12/22 21:49:24;;;;;;;36.75;19.63;;;6.80;99.90;;;;;;6244051;23;20004;-78
2022/12/22 21:51:51;;;;;;;34.75;18.35;;;6.80;99.90;;;;;;6218406;23;20023;-78
2022/12/22 21:54:19;;;;;;;33.95;17.92;;;6.80;99.90;;;;;;6220024;23;20001;-78
2022/12/22 21:56:45;;;;;;;30.88;17.50;;;6.80;99.90;;;;;;6220470;23;20070;-78
2022/12/22 21:59:11;;;;;;;30.38;16.52;;;6.80;99.90;;;;;;6217371;23;20012;-79
2022/12/22 22:01:38;;;;;;;32.67;17.05;;;6.90;99.90;;;;;;6219215;23;20027;-79
2022/12/22 22:04:04;;;;;;;37.20;17.27;;;6.90;99.90;;;;;;6242277;23;19996;-79
2022/12/22 22:06:30;;;;;;;30.05;15.85;;;6.90;99.90;;;;;;6217899;23;20011;-78
2022/12/22 22:08:55;;;;;;;31.13;17.27;;;6.90;99.90;;;;;;6217188;23;20005;-79
2022/12/22 22:11:23;;;;;;;29.70;15.60;;;6.90;99.90;;;;;;6218166;23;20000;-80
2022/12/22 22:13:49;;;;;;;32.70;15.70;;;6.90;99.90;;;;;;6245555;23;20008;-80
2022/12/22 22:16:14;;;;;;;27.52;14.55;;;7.00;99.90;;;;;;6245864;23;20081;-79
2022/12/22 22:18:41;;;;;;;28.48;14.68;;;7.00;99.90;;;;;;6218729;23;20015;-79
2022/12/22 22:21:08;;;;;;;27.85;14.75;;;7.00;99.90;;;;;;6218346;23;20008;-79
2022/12/22 22:23:34;;;;;;;34.22;15.93;;;7.00;99.90;;;;;;6218515;23;20007;-79
2022/12/22 22:26:00;;;;;;;28.15;14.40;;;7.00;99.90;;;;;;6245923;23;19996;-79
2022/12/22 22:28:26;;;;;;;27.58;14.93;;;7.00;99.90;;;;;;6246194;23;20046;-79
2022/12/22 22:30:52;;;;;;;24.20;14.88;;;7.00;99.90;;;;;;6246188;23;19996;-79
2022/12/22 22:33:17;;;;;;;28.63;14.45;;;7.10;99.90;;;;;;6245156;23;20050;-79
2022/12/22 22:35:43;;;;;;;25.40;13.93;;;7.10;99.90;;;;;;6216937;23;20010;-79
2022/12/22 22:38:13;;;;;;;28.67;14.13;;;7.10;99.90;;;;;;6242997;23;20018;-78
2022/12/22 22:40:42;;;;;;;21.48;12.90;;;7.10;99.90;;;;;;6242340;23;20004;-78
2022/12/22 22:43:08;;;;;;;26.63;14.10;;;7.10;99.90;;;;;;6242418;23;19993;-79
2022/12/22 22:45:37;;;;;;;27.90;14.18;;;7.10;99.90;;;;;;6242940;23;19996;-79
2022/12/22 22:48:03;;;;;;;26.83;15.13;;;7.10;99.90;;;;;;6216218;23;20004;-80
2022/12/22 22:50:28;;;;;;;25.30;13.27;;;7.10;99.90;;;;;;6215942;23;20465;-79
2022/12/22 22:52:54;;;;;;;26.27;13.27;;;7.10;99.90;;;;;;6216434;23;20441;-79
2022/12/22 22:55:20;;;;;;;24.40;13.70;;;7.20;99.90;;;;;;6243113;23;19997;-78
2022/12/22 22:57:46;;;;;;;23.67;14.00;;;7.20;99.90;;;;;;6216360;23;20034;-79
2022/12/22 23:00:15;;;;;;;25.80;14.05;;;7.20;99.90;;;;;;6215470;23;20011;-79
2022/12/22 23:02:41;;;;;;;27.20;13.32;;;7.20;99.90;;;;;;6215600;23;20000;-78
2022/12/22 23:05:08;;;;;;;27.45;14.70;;;7.30;99.90;;;;;;6215651;23;20083;-79
2022/12/22 23:07:35;;;;;;;28.40;15.48;;;7.30;99.90;;;;;;6241594;23;19996;-79
2022/12/22 23:10:01;;;;;;;31.10;16.25;;;7.30;99.90;;;;;;6242079;23;20062;-79
2022/12/22 23:12:26;;;;;;;28.38;14.25;;;7.30;99.90;;;;;;6215566;23;20001;-79
2022/12/22 23:14:52;;;;;;;30.25;15.05;;;7.30;99.90;;;;;;6242581;23;20016;-79
2022/12/22 23:17:18;;;;;;;28.27;14.20;;;7.30;99.90;;;;;;6242052;23;20012;-75
2022/12/22 23:19:43;;;;;;;28.55;14.25;;;7.40;99.90;;;;;;6241171;23;20000;-75
2022/12/22 23:22:09;;;;;;;26.52;14.90;;;7.40;99.90;;;;;;6241205;23;20007;-75
2022/12/22 23:24:35;;;;;;;28.30;15.15;;;7.40;99.90;;;;;;6214758;23;20054;-75
2022/12/22 23:27:01;;;;;;;32.25;15.20;;;7.40;99.90;;;;;;6214753;23;20000;-76
2022/12/22 23:29:27;;;;;;;31.90;15.63;;;7.40;99.90;;;;;;6213628;23;20015;-76
2022/12/22 23:31:52;;;;;;;27.10;14.98;;;7.40;99.90;;;;;;6214482;23;20000;-77
2022/12/22 23:34:18;;;;;;;33.20;15.93;;;7.40;99.90;;;;;;6214657;23;20095;-77
2022/12/22 23:36:45;;;;;;;27.23;14.70;;;7.40;99.90;;;;;;6241570;23;20028;-77
2022/12/22 23:39:10;;;;;;;26.08;14.98;;;7.40;99.90;;;;;;6240625;23;20075;-77
2022/12/22 23:41:36;;;;;;;28.70;15.15;;;7.40;99.90;;;;;;6214883;23;20023;-77
2022/12/22 23:44:02;;;;;;;28.98;15.60;;;7.40;99.90;;;;;;6210397;23;20095;-77
2022/12/22 23:46:28;;;;;;;25.75;15.05;;;7.40;99.90;;;;;;6240548;23;19996;-76
2022/12/22 23:48:56;;;;;;;28.65;13.98;;;7.40;99.90;;;;;;6241407;23;20003;-76
2022/12/22 23:51:26;;;;;;;30.85;15.68;;;7.40;99.90;;;;;;6213865;23;20061;-76
2022/12/22 23:53:52;;;;;;;26.55;14.65;;;7.40;99.90;;;;;;6240456;23;20000;-77
2022/12/22 23:56:18;;;;;;;28.30;14.10;;;7.40;99.90;;;;;;6214263;23;20024;-77
2022/12/22 23:58:44;;;;;;;32.03;15.95;;;7.30;99.90;;;;;;6241231;23;20026;-77
